East China, Michigan
Current Conditions -  °F | °C
As of 9:57 PM on Sunday 23 Nov 2014 (Local Time) from KPHN Reporting Station
Heavy Rain Heavy Rain  
Wind Chill: 50°   Ceiling: 2900
Heat Index: 50°   Visibility: 5mi
Dew Point: 48°   Wind: 15mph
Humidity: 94%   Direction: 120°ESE
Pressure: 29.46"   Gusts: 21mph
Location:  42.77°N, 82.52°W
Report Text: KPHN 240257Z AUTO 12013G18KT 5SM +RA BKN029 BKN037 OVC047 10/09 A2946 RMK AO2
Loading
Personal Weather Stations






























Interactive Weather Map New forecast layout! Learn more

10-Day Weather Forecast

Advertisements
Track Severe Weather on mobile